AUA7 LOWW-VTBS
Flight info
| Callsign | AUA7 |
|---|---|
| Flight time | N/A |
| Altitude | 35000 |
| Route | ADAMA DCT VEDER DCT ALAMU DCT BUDOP DCT BUXLE DCT SIB DCT PELUR DCT IDARU DCT DINRO DCT UDROS DCT BAMUP DCT ROLIN DCT FOQUS DCT LAGAS DCT DISKA M737 VERCA M747 SULEL N449 DUKAN B449 RANAH L750 MERUN G452 LKN R460 BBN P646 JJS Z12 DOPID P646 TARED DCT WILLA WILLA1C |
| Aircraft | B772/H-SDE2E3FGHIJ5LORVWXY/LB1D1 |
Departure
| Time | 2026-05-08 05:24 |
|---|---|
| Airport | Vienna International Airport (LOWW) |
Arrival
| Time | N/A |
|---|---|
| Airport | Suvarnabhumi Airport (VTBS) |
| Time | Latitude | Longitude | Altitude | Speed | Heading |
|---|---|---|---|---|---|
| 2026-05-08 04:58 | 48.11775 | 16.56192 | 626 ft | 0 kts | 343° |
| 2026-05-08 05:15 | 48.11768 | 16.56195 | 628 ft | 3 kts | 342° |
| 2026-05-08 05:15 | 48.11750 | 16.56205 | 628 ft | 3 kts | 337° |
| 2026-05-08 05:16 | 48.11734 | 16.56217 | 628 ft | 3 kts | 328° |
| 2026-05-08 05:16 | 48.11720 | 16.56231 | 628 ft | 2 kts | 313° |
| 2026-05-08 05:16 | 48.11713 | 16.56245 | 628 ft | 1 kts | 290° |
| 2026-05-08 05:16 | 48.11711 | 16.56257 | 628 ft | 1 kts | 264° |
| 2026-05-08 05:17 | 48.11712 | 16.56269 | 628 ft | 1 kts | 241° |
| 2026-05-08 05:17 | 48.11716 | 16.56279 | 628 ft | 1 kts | 226° |
| 2026-05-08 05:17 | 48.11722 | 16.56288 | 628 ft | 1 kts | 216° |
| 2026-05-08 05:17 | 48.11729 | 16.56295 | 628 ft | 1 kts | 210° |
| 2026-05-08 05:18 | 48.11731 | 16.56297 | 628 ft | 0 kts | 208° |
| 2026-05-08 05:18 | 48.11703 | 16.56276 | 628 ft | 9 kts | 206° |
| 2026-05-08 05:19 | 48.11648 | 16.56228 | 625 ft | 9 kts | 217° |
| 2026-05-08 05:19 | 48.11592 | 16.56182 | 622 ft | 9 kts | 192° |
| 2026-05-08 05:19 | 48.11547 | 16.56241 | 626 ft | 9 kts | 118° |
| 2026-05-08 05:19 | 48.11517 | 16.56327 | 625 ft | 9 kts | 117° |
| 2026-05-08 05:20 | 48.11488 | 16.56418 | 618 ft | 12 kts | 116° |
| 2026-05-08 05:20 | 48.11444 | 16.56553 | 624 ft | 15 kts | 116° |
| 2026-05-08 05:20 | 48.11399 | 16.56690 | 626 ft | 15 kts | 116° |
| 2026-05-08 05:20 | 48.11354 | 16.56827 | 621 ft | 15 kts | 115° |
| 2026-05-08 05:21 | 48.11310 | 16.56964 | 624 ft | 15 kts | 116° |
| 2026-05-08 05:21 | 48.11265 | 16.57102 | 624 ft | 15 kts | 116° |
| 2026-05-08 05:21 | 48.11220 | 16.57239 | 624 ft | 15 kts | 116° |
| 2026-05-08 05:21 | 48.11176 | 16.57376 | 624 ft | 15 kts | 116° |
| 2026-05-08 05:22 | 48.11134 | 16.57503 | 621 ft | 12 kts | 116° |
| 2026-05-08 05:22 | 48.11099 | 16.57610 | 621 ft | 12 kts | 116° |
| 2026-05-08 05:22 | 48.11043 | 16.57642 | 624 ft | 7 kts | 198° |
| 2026-05-08 05:22 | 48.10998 | 16.57613 | 620 ft | 7 kts | 204° |
| 2026-05-08 05:23 | 48.10955 | 16.57579 | 624 ft | 7 kts | 215° |
| 2026-05-08 05:23 | 48.10928 | 16.57520 | 627 ft | 7 kts | 255° |
| 2026-05-08 05:23 | 48.10943 | 16.57451 | 623 ft | 7 kts | 296° |
| 2026-05-08 05:23 | 48.10961 | 16.57394 | 625 ft | 23 kts | 295° |
| 2026-05-08 05:24 | 48.11132 | 16.56867 | 618 ft | 89 kts | 296° |
| 2026-05-08 05:24 | 48.11491 | 16.55764 | 620 ft | 145 kts | 296° |
| 2026-05-08 05:24 | 48.11992 | 16.54215 | 794 ft | 176 kts | 295° |
| 2026-05-08 05:24 | 48.12512 | 16.52522 | 1410 ft | 179 kts | 288° |
| 2026-05-08 05:25 | 48.12460 | 16.50646 | 1997 ft | 193 kts | 245° |
| 2026-05-08 05:25 | 48.11442 | 16.49273 | 2432 ft | 212 kts | 207° |
| 2026-05-08 05:25 | 48.10011 | 16.48453 | 2601 ft | 229 kts | 204° |
| 2026-05-08 05:25 | 48.08472 | 16.47557 | 2875 ft | 243 kts | 202° |
| 2026-05-08 05:26 | 48.06744 | 16.47204 | 3014 ft | 263 kts | 172° |
| 2026-05-08 05:26 | 48.04906 | 16.47702 | 3333 ft | 273 kts | 172° |
| 2026-05-08 05:26 | 48.03007 | 16.48101 | 3878 ft | 278 kts | 174° |
| 2026-05-08 05:26 | 48.01082 | 16.48460 | 4511 ft | 280 kts | 174° |
| 2026-05-08 05:27 | 47.99140 | 16.48821 | 5151 ft | 282 kts | 174° |
| 2026-05-08 05:27 | 47.97226 | 16.49350 | 5736 ft | 281 kts | 159° |
| 2026-05-08 05:27 | 47.95642 | 16.51044 | 6211 ft | 285 kts | 127° |
| 2026-05-08 05:27 | 47.94807 | 16.53688 | 6801 ft | 284 kts | 99° |
| 2026-05-08 05:28 | 47.94821 | 16.56609 | 7276 ft | 283 kts | 75° |
| 2026-05-08 05:28 | 47.95420 | 16.59410 | 7602 ft | 287 kts | 69° |
| 2026-05-08 05:28 | 47.96094 | 16.62243 | 8111 ft | 290 kts | 69° |
| 2026-05-08 05:28 | 47.96760 | 16.65045 | 8640 ft | 292 kts | 69° |
| 2026-05-08 05:29 | 47.97435 | 16.67911 | 9133 ft | 295 kts | 69° |
| 2026-05-08 05:29 | 47.98120 | 16.70857 | 9608 ft | 298 kts | 69° |
| 2026-05-08 05:29 | 47.98799 | 16.73801 | 10052 ft | 302 kts | 69° |
| 2026-05-08 05:29 | 47.99478 | 16.76762 | 10327 ft | 312 kts | 70° |
| 2026-05-08 05:30 | 47.99956 | 16.79979 | 10406 ft | 326 kts | 82° |
| 2026-05-08 05:30 | 48.00145 | 16.83427 | 10536 ft | 341 kts | 86° |
| 2026-05-08 05:30 | 48.00276 | 16.87028 | 10804 ft | 353 kts | 86° |
| 2026-05-08 05:30 | 48.00427 | 16.90727 | 11253 ft | 360 kts | 85° |
| 2026-05-08 05:31 | 48.00613 | 16.94480 | 11849 ft | 364 kts | 84° |
| 2026-05-08 05:31 | 48.00820 | 16.98272 | 12570 ft | 367 kts | 84° |
| 2026-05-08 05:31 | 48.01034 | 17.02090 | 13280 ft | 371 kts | 84° |
| 2026-05-08 05:31 | 48.01123 | 17.05959 | 13883 ft | 377 kts | 92° |
| 2026-05-08 05:32 | 48.00864 | 17.09884 | 14444 ft | 382 kts | 97° |
| 2026-05-08 05:32 | 48.00485 | 17.13829 | 15102 ft | 385 kts | 98° |
| 2026-05-08 05:32 | 48.00107 | 17.17790 | 15778 ft | 387 kts | 98° |
| 2026-05-08 05:32 | 47.99757 | 17.21793 | 16415 ft | 390 kts | 97° |
| 2026-05-08 05:33 | 47.99434 | 17.25836 | 16997 ft | 395 kts | 96° |
| 2026-05-08 05:33 | 47.99118 | 17.29930 | 17568 ft | 399 kts | 96° |
| 2026-05-08 05:33 | 47.98791 | 17.34068 | 18141 ft | 403 kts | 98° |
| 2026-05-08 05:33 | 47.98182 | 17.38167 | 18608 ft | 407 kts | 107° |
| 2026-05-08 05:34 | 47.97301 | 17.42191 | 19109 ft | 409 kts | 110° |
| 2026-05-08 05:34 | 47.96335 | 17.46194 | 19650 ft | 411 kts | 111° |
| 2026-05-08 05:34 | 47.95364 | 17.50212 | 20204 ft | 412 kts | 110° |
| 2026-05-08 05:34 | 47.94414 | 17.54254 | 20716 ft | 415 kts | 110° |
| 2026-05-08 05:35 | 47.93480 | 17.58336 | 21186 ft | 418 kts | 109° |
| 2026-05-08 05:35 | 47.92554 | 17.62458 | 21647 ft | 421 kts | 109° |
| 2026-05-08 05:35 | 47.91630 | 17.66612 | 22129 ft | 424 kts | 109° |
| 2026-05-08 05:35 | 47.90702 | 17.70797 | 22613 ft | 426 kts | 109° |
| 2026-05-08 05:36 | 47.89767 | 17.75008 | 23098 ft | 429 kts | 109° |
| 2026-05-08 05:36 | 47.88826 | 17.79236 | 23581 ft | 431 kts | 109° |
| 2026-05-08 05:36 | 47.87878 | 17.83483 | 23977 ft | 434 kts | 109° |
| 2026-05-08 05:36 | 47.86921 | 17.87765 | 24336 ft | 438 kts | 109° |
| 2026-05-08 05:37 | 47.85952 | 17.92087 | 24674 ft | 441 kts | 109° |
| 2026-05-08 05:37 | 47.84973 | 17.96434 | 25021 ft | 445 kts | 110° |
| 2026-05-08 05:37 | 47.83873 | 18.00751 | 25368 ft | 447 kts | 116° |
| 2026-05-08 05:37 | 47.82563 | 18.04956 | 25699 ft | 450 kts | 117° |
| 2026-05-08 05:38 | 47.81206 | 18.09183 | 26018 ft | 454 kts | 117° |
| 2026-05-08 05:38 | 47.79844 | 18.13437 | 26372 ft | 457 kts | 117° |
| 2026-05-08 05:38 | 47.78503 | 18.17670 | 26729 ft | 460 kts | 117° |
| 2026-05-08 05:38 | 47.77144 | 18.21999 | 27084 ft | 463 kts | 117° |
| 2026-05-08 05:39 | 47.75781 | 18.26358 | 27430 ft | 467 kts | 117° |
| 2026-05-08 05:39 | 47.74407 | 18.30743 | 27760 ft | 470 kts | 117° |
| 2026-05-08 05:39 | 47.73020 | 18.35162 | 28113 ft | 473 kts | 118° |
| 2026-05-08 05:39 | 47.71627 | 18.39610 | 28444 ft | 477 kts | 118° |
| 2026-05-08 05:40 | 47.70227 | 18.44089 | 28761 ft | 480 kts | 118° |
| 2026-05-08 05:40 | 47.68816 | 18.48602 | 29065 ft | 484 kts | 118° |
| 2026-05-08 05:40 | 47.67394 | 18.53143 | 29402 ft | 487 kts | 118° |
| 2026-05-08 05:40 | 47.65961 | 18.57711 | 29739 ft | 490 kts | 118° |
| 2026-05-08 05:41 | 47.64519 | 18.62300 | 30054 ft | 493 kts | 119° |
| 2026-05-08 05:41 | 47.63065 | 18.66916 | 30323 ft | 496 kts | 119° |
| 2026-05-08 05:41 | 47.61599 | 18.71561 | 30610 ft | 498 kts | 119° |
| 2026-05-08 05:41 | 47.60130 | 18.76210 | 30913 ft | 499 kts | 119° |
| 2026-05-08 05:42 | 47.58654 | 18.80873 | 31235 ft | 500 kts | 119° |
| 2026-05-08 05:42 | 47.57173 | 18.85539 | 31544 ft | 502 kts | 119° |
| 2026-05-08 05:42 | 47.55685 | 18.90220 | 31799 ft | 504 kts | 119° |
| 2026-05-08 05:42 | 47.54188 | 18.94919 | 32059 ft | 506 kts | 119° |
| 2026-05-08 05:43 | 47.52681 | 18.99639 | 32321 ft | 508 kts | 119° |
| 2026-05-08 05:43 | 47.51169 | 19.04366 | 32589 ft | 509 kts | 119° |
| 2026-05-08 05:43 | 47.49652 | 19.09102 | 32832 ft | 511 kts | 119° |
| 2026-05-08 05:43 | 47.48125 | 19.13860 | 33054 ft | 512 kts | 119° |
| 2026-05-08 05:44 | 47.46595 | 19.18620 | 33273 ft | 513 kts | 119° |
| 2026-05-08 05:44 | 47.45062 | 19.23382 | 33580 ft | 513 kts | 119° |
| 2026-05-08 05:44 | 47.43526 | 19.28141 | 33894 ft | 513 kts | 119° |
| 2026-05-08 05:44 | 47.41987 | 19.32902 | 34075 ft | 515 kts | 120° |
| 2026-05-08 05:45 | 47.40441 | 19.37671 | 34273 ft | 515 kts | 120° |
| 2026-05-08 05:45 | 47.38896 | 19.42434 | 34567 ft | 514 kts | 120° |
| 2026-05-08 05:45 | 47.37354 | 19.47178 | 34840 ft | 512 kts | 120° |
| 2026-05-08 05:45 | 47.35808 | 19.51925 | 34981 ft | 515 kts | 120° |
| 2026-05-08 05:46 | 47.34250 | 19.56695 | 35028 ft | 518 kts | 120° |
| 2026-05-08 05:46 | 47.31116 | 19.66267 | 35047 ft | 517 kts | 120° |
| 2026-05-08 05:47 | 47.28011 | 19.75731 | 35049 ft | 511 kts | 120° |
| 2026-05-08 05:47 | 47.24911 | 19.85134 | 35038 ft | 511 kts | 120° |
| 2026-05-08 05:48 | 47.21801 | 19.94528 | 35053 ft | 511 kts | 120° |
| 2026-05-08 05:48 | 47.18682 | 20.03916 | 35052 ft | 511 kts | 120° |
| 2026-05-08 05:49 | 47.15554 | 20.13299 | 35049 ft | 512 kts | 120° |
| 2026-05-08 05:49 | 47.12414 | 20.22687 | 35041 ft | 512 kts | 120° |
| 2026-05-08 05:50 | 47.09290 | 20.31993 | 35048 ft | 512 kts | 120° |
| 2026-05-08 05:50 | 47.06132 | 20.41363 | 35051 ft | 512 kts | 120° |
| 2026-05-08 05:51 | 47.02970 | 20.50716 | 35049 ft | 512 kts | 120° |
| 2026-05-08 05:51 | 46.99799 | 20.60057 | 35048 ft | 512 kts | 120° |
| 2026-05-08 05:52 | 46.96624 | 20.69380 | 35067 ft | 512 kts | 121° |
| 2026-05-08 05:52 | 46.93441 | 20.78692 | 35053 ft | 511 kts | 121° |
| 2026-05-08 05:53 | 46.90252 | 20.87989 | 35028 ft | 511 kts | 121° |
| 2026-05-08 05:53 | 46.87060 | 20.97262 | 35054 ft | 510 kts | 121° |
| 2026-05-08 05:54 | 46.83865 | 21.06512 | 35054 ft | 510 kts | 121° |
| 2026-05-08 05:54 | 46.80662 | 21.15751 | 35058 ft | 510 kts | 121° |
| 2026-05-08 05:55 | 46.77998 | 21.23412 | 35029 ft | 509 kts | 121° |
| 2026-05-08 05:55 | 46.74786 | 21.32619 | 35049 ft | 509 kts | 121° |
| 2026-05-08 05:56 | 46.71569 | 21.41811 | 35062 ft | 509 kts | 121° |
| 2026-05-08 05:56 | 46.68349 | 21.50987 | 35057 ft | 509 kts | 120° |
| 2026-05-08 05:57 | 46.65319 | 21.60338 | 35046 ft | 511 kts | 118° |
| 2026-05-08 05:57 | 46.62394 | 21.69751 | 35055 ft | 511 kts | 118° |
| 2026-05-08 05:58 | 46.59428 | 21.79136 | 35060 ft | 510 kts | 118° |
| 2026-05-08 05:58 | 46.56429 | 21.88486 | 35063 ft | 510 kts | 118° |
| 2026-05-08 05:59 | 46.53417 | 21.97826 | 35057 ft | 510 kts | 118° |
| 2026-05-08 05:59 | 46.50406 | 22.07144 | 35062 ft | 509 kts | 118° |
| 2026-05-08 06:00 | 46.47394 | 22.16440 | 35069 ft | 509 kts | 119° |
| 2026-05-08 06:00 | 46.44371 | 22.25644 | 35040 ft | 509 kts | 119° |
| 2026-05-08 06:01 | 46.41269 | 22.34851 | 35061 ft | 508 kts | 120° |
| 2026-05-08 06:01 | 46.38159 | 22.44045 | 35064 ft | 508 kts | 120° |
| 2026-05-08 06:02 | 46.35047 | 22.53242 | 35069 ft | 509 kts | 120° |
| 2026-05-08 06:02 | 46.31930 | 22.62434 | 35064 ft | 509 kts | 119° |
| 2026-05-08 06:03 | 46.28802 | 22.71634 | 35061 ft | 510 kts | 119° |
| 2026-05-08 06:03 | 46.25670 | 22.80808 | 35063 ft | 509 kts | 120° |
| 2026-05-08 06:04 | 46.22532 | 22.89973 | 35056 ft | 509 kts | 120° |
| 2026-05-08 06:04 | 46.19389 | 22.99115 | 35048 ft | 508 kts | 120° |
| 2026-05-08 06:05 | 46.16244 | 23.08231 | 35070 ft | 508 kts | 120° |
| 2026-05-08 06:05 | 46.13089 | 23.17349 | 35052 ft | 508 kts | 120° |
| 2026-05-08 06:06 | 46.09925 | 23.26460 | 35052 ft | 508 kts | 120° |
| 2026-05-08 06:06 | 46.06753 | 23.35557 | 35054 ft | 508 kts | 120° |
| 2026-05-08 06:07 | 46.03598 | 23.44580 | 35056 ft | 507 kts | 120° |
| 2026-05-08 06:07 | 46.00398 | 23.53702 | 35059 ft | 507 kts | 120° |
| 2026-05-08 06:08 | 45.97239 | 23.62673 | 35045 ft | 506 kts | 120° |
| 2026-05-08 06:08 | 45.94055 | 23.71688 | 35058 ft | 505 kts | 120° |
| 2026-05-08 06:09 | 45.90871 | 23.80671 | 35065 ft | 504 kts | 120° |
| 2026-05-08 06:09 | 45.87684 | 23.89634 | 35062 ft | 504 kts | 120° |
| 2026-05-08 06:10 | 45.84488 | 23.98590 | 35067 ft | 504 kts | 120° |
| 2026-05-08 06:10 | 45.81285 | 24.07540 | 35081 ft | 505 kts | 120° |
| 2026-05-08 06:11 | 45.78067 | 24.16498 | 35078 ft | 506 kts | 120° |
| 2026-05-08 06:11 | 45.74813 | 24.25433 | 35062 ft | 507 kts | 120° |
| 2026-05-08 06:12 | 45.71536 | 24.34360 | 35068 ft | 506 kts | 120° |
| 2026-05-08 06:12 | 45.68260 | 24.43270 | 35069 ft | 506 kts | 120° |
| 2026-05-08 06:13 | 45.64986 | 24.52158 | 35065 ft | 505 kts | 120° |
| 2026-05-08 06:13 | 45.61707 | 24.61034 | 35065 ft | 505 kts | 120° |
| 2026-05-08 06:14 | 45.58426 | 24.69886 | 35062 ft | 504 kts | 120° |
| 2026-05-08 06:14 | 45.55140 | 24.78718 | 35083 ft | 504 kts | 120° |
| 2026-05-08 06:15 | 45.51849 | 24.87538 | 35072 ft | 504 kts | 120° |
| 2026-05-08 06:15 | 45.48557 | 24.96334 | 35062 ft | 503 kts | 120° |
| 2026-05-08 06:16 | 45.45266 | 25.05097 | 35084 ft | 501 kts | 120° |
| 2026-05-08 06:16 | 45.41971 | 25.13842 | 35067 ft | 501 kts | 120° |
| 2026-05-08 06:17 | 45.37028 | 25.26913 | 35079 ft | 500 kts | 120° |
| 2026-05-08 06:17 | 45.33745 | 25.35559 | 35067 ft | 500 kts | 121° |
| 2026-05-08 06:18 | 45.30439 | 25.44244 | 35059 ft | 500 kts | 121° |
| 2026-05-08 06:18 | 45.27081 | 25.52898 | 35059 ft | 500 kts | 122° |
| 2026-05-08 06:19 | 45.23490 | 25.61348 | 35066 ft | 500 kts | 124° |
| 2026-05-08 06:19 | 45.19847 | 25.69757 | 35081 ft | 501 kts | 123° |
| 2026-05-08 06:20 | 45.16223 | 25.78201 | 35067 ft | 502 kts | 123° |
| 2026-05-08 06:20 | 45.12613 | 25.86656 | 35068 ft | 502 kts | 123° |
| 2026-05-08 06:21 | 45.08999 | 25.95111 | 35074 ft | 502 kts | 123° |
| 2026-05-08 06:21 | 45.05376 | 26.03554 | 35073 ft | 502 kts | 123° |
| 2026-05-08 06:22 | 45.01749 | 26.11977 | 35070 ft | 502 kts | 123° |
| 2026-05-08 06:22 | 44.98115 | 26.20389 | 35080 ft | 501 kts | 123° |
| 2026-05-08 06:23 | 44.94480 | 26.28783 | 35067 ft | 501 kts | 123° |
| 2026-05-08 06:23 | 44.90844 | 26.37151 | 35079 ft | 500 kts | 123° |
| 2026-05-08 06:24 | 44.87201 | 26.45510 | 35068 ft | 500 kts | 123° |
| 2026-05-08 06:24 | 44.83561 | 26.53840 | 35076 ft | 499 kts | 123° |
| 2026-05-08 06:25 | 44.79917 | 26.62154 | 35069 ft | 499 kts | 123° |
| 2026-05-08 06:25 | 44.76258 | 26.70479 | 35075 ft | 500 kts | 123° |
| 2026-05-08 06:26 | 44.72586 | 26.78809 | 35082 ft | 501 kts | 123° |
| 2026-05-08 06:26 | 44.68903 | 26.87141 | 35072 ft | 502 kts | 123° |
| 2026-05-08 06:27 | 44.65208 | 26.95480 | 35075 ft | 503 kts | 123° |
| 2026-05-08 06:27 | 44.61344 | 27.03665 | 35063 ft | 503 kts | 127° |
| 2026-05-08 06:28 | 44.57305 | 27.11671 | 35072 ft | 502 kts | 127° |
| 2026-05-08 06:28 | 44.53261 | 27.19652 | 35071 ft | 502 kts | 127° |
| 2026-05-08 06:29 | 44.49236 | 27.27627 | 35072 ft | 501 kts | 127° |
| 2026-05-08 06:29 | 44.45216 | 27.35595 | 35074 ft | 501 kts | 127° |
| 2026-05-08 06:30 | 44.41199 | 27.43540 | 35075 ft | 500 kts | 127° |
| 2026-05-08 06:30 | 44.37179 | 27.51466 | 35077 ft | 500 kts | 127° |
| 2026-05-08 06:31 | 44.33178 | 27.59331 | 35064 ft | 500 kts | 126° |
| 2026-05-08 06:31 | 44.29137 | 27.67253 | 35080 ft | 501 kts | 127° |
| 2026-05-08 06:32 | 44.25076 | 27.75192 | 35076 ft | 503 kts | 127° |
| 2026-05-08 06:32 | 44.21001 | 27.83137 | 35079 ft | 504 kts | 127° |
| 2026-05-08 06:33 | 44.16912 | 27.91088 | 35085 ft | 505 kts | 126° |
| 2026-05-08 06:33 | 44.12820 | 27.99024 | 35078 ft | 504 kts | 127° |
| 2026-05-08 06:34 | 44.08729 | 28.06935 | 35084 ft | 503 kts | 127° |
| 2026-05-08 06:34 | 44.04642 | 28.14817 | 35087 ft | 501 kts | 126° |
| 2026-05-08 06:35 | 44.00568 | 28.22653 | 35084 ft | 500 kts | 126° |
| 2026-05-08 06:35 | 43.96497 | 28.30462 | 35088 ft | 498 kts | 127° |
| 2026-05-08 06:36 | 43.92435 | 28.38234 | 35077 ft | 497 kts | 127° |
| 2026-05-08 06:36 | 43.88377 | 28.45978 | 35093 ft | 496 kts | 127° |
| 2026-05-08 06:37 | 43.84320 | 28.53698 | 35093 ft | 495 kts | 127° |
| 2026-05-08 06:37 | 43.80257 | 28.61412 | 35095 ft | 496 kts | 127° |
| 2026-05-08 06:38 | 43.76191 | 28.69111 | 35106 ft | 496 kts | 127° |
| 2026-05-08 06:38 | 43.72117 | 28.76807 | 35100 ft | 496 kts | 127° |
| 2026-05-08 06:39 | 43.68041 | 28.84508 | 35113 ft | 496 kts | 126° |
| 2026-05-08 06:39 | 43.63999 | 28.92238 | 35120 ft | 496 kts | 126° |
| 2026-05-08 06:40 | 43.59962 | 28.99966 | 35114 ft | 496 kts | 126° |
| 2026-05-08 06:40 | 43.55923 | 29.07663 | 35123 ft | 495 kts | 126° |
| 2026-05-08 06:41 | 43.51879 | 29.15341 | 35114 ft | 494 kts | 126° |
| 2026-05-08 06:41 | 43.47840 | 29.22987 | 35101 ft | 494 kts | 126° |
| 2026-05-08 06:42 | 43.44479 | 29.29333 | 35121 ft | 493 kts | 126° |
| 2026-05-08 06:42 | 43.40436 | 29.36952 | 35121 ft | 493 kts | 127° |
| 2026-05-08 06:43 | 43.36381 | 29.44574 | 35122 ft | 494 kts | 127° |
| 2026-05-08 06:43 | 43.32323 | 29.52180 | 35122 ft | 494 kts | 127° |
| 2026-05-08 06:44 | 43.28261 | 29.59776 | 35123 ft | 494 kts | 127° |
| 2026-05-08 06:44 | 43.24193 | 29.67363 | 35122 ft | 493 kts | 127° |
| 2026-05-08 06:45 | 43.20121 | 29.74938 | 35121 ft | 493 kts | 127° |
| 2026-05-08 06:45 | 43.16049 | 29.82493 | 35122 ft | 493 kts | 127° |
| 2026-05-08 06:46 | 43.11970 | 29.90041 | 35121 ft | 493 kts | 127° |
| 2026-05-08 06:46 | 43.07893 | 29.97568 | 35128 ft | 492 kts | 127° |
| 2026-05-08 06:47 | 43.03810 | 30.05087 | 35114 ft | 492 kts | 127° |
| 2026-05-08 06:47 | 42.99724 | 30.12591 | 35125 ft | 492 kts | 127° |
| 2026-05-08 06:48 | 42.95627 | 30.20098 | 35126 ft | 493 kts | 127° |
| 2026-05-08 06:48 | 42.91525 | 30.27596 | 35130 ft | 493 kts | 127° |
| 2026-05-08 06:49 | 42.87412 | 30.35094 | 35129 ft | 494 kts | 127° |
| 2026-05-08 06:49 | 42.83297 | 30.42577 | 35127 ft | 493 kts | 127° |
| 2026-05-08 06:50 | 42.79206 | 30.50002 | 35133 ft | 493 kts | 127° |
| 2026-05-08 06:50 | 42.75340 | 30.57678 | 35120 ft | 492 kts | 116° |
| 2026-05-08 06:51 | 42.73095 | 30.66429 | 35134 ft | 490 kts | 99° |
| 2026-05-08 06:51 | 42.72189 | 30.75589 | 35135 ft | 489 kts | 96° |
| 2026-05-08 06:52 | 42.71330 | 30.84757 | 35137 ft | 488 kts | 96° |
| 2026-05-08 06:52 | 42.70419 | 30.93911 | 35134 ft | 488 kts | 97° |
| 2026-05-08 06:53 | 42.69477 | 31.03046 | 35141 ft | 488 kts | 97° |
| 2026-05-08 06:53 | 42.68522 | 31.12185 | 35135 ft | 488 kts | 97° |
| 2026-05-08 06:54 | 42.67563 | 31.21315 | 35141 ft | 488 kts | 97° |
| 2026-05-08 06:54 | 42.66598 | 31.30451 | 35145 ft | 488 kts | 97° |
| 2026-05-08 06:55 | 42.65626 | 31.39582 | 35148 ft | 489 kts | 97° |
| 2026-05-08 06:55 | 42.64644 | 31.48729 | 35147 ft | 489 kts | 97° |
| 2026-05-08 06:56 | 42.63654 | 31.57881 | 35143 ft | 490 kts | 97° |
| 2026-05-08 06:56 | 42.62655 | 31.67047 | 35147 ft | 491 kts | 97° |
| 2026-05-08 06:57 | 42.61649 | 31.76212 | 35140 ft | 491 kts | 97° |
| 2026-05-08 06:57 | 42.60640 | 31.85328 | 35148 ft | 492 kts | 96° |
| 2026-05-08 06:58 | 42.59619 | 31.94505 | 35146 ft | 492 kts | 96° |
| 2026-05-08 06:58 | 42.58652 | 32.03700 | 35151 ft | 491 kts | 93° |
| 2026-05-08 06:59 | 42.58148 | 32.12927 | 35155 ft | 491 kts | 91° |
| 2026-05-08 06:59 | 42.57681 | 32.22166 | 35154 ft | 491 kts | 91° |
| 2026-05-08 07:00 | 42.57191 | 32.31398 | 35167 ft | 491 kts | 91° |
| 2026-05-08 07:00 | 42.56678 | 32.40637 | 35156 ft | 491 kts | 91° |
| 2026-05-08 07:01 | 42.56153 | 32.49865 | 35155 ft | 491 kts | 91° |
| 2026-05-08 07:01 | 42.55620 | 32.59093 | 35154 ft | 490 kts | 91° |
| 2026-05-08 07:02 | 42.55082 | 32.68303 | 35154 ft | 490 kts | 91° |
| 2026-05-08 07:02 | 42.54537 | 32.77519 | 35158 ft | 490 kts | 91° |
| 2026-05-08 07:03 | 42.53985 | 32.86728 | 35158 ft | 490 kts | 91° |
| 2026-05-08 07:03 | 42.53426 | 32.95924 | 35158 ft | 490 kts | 91° |
| 2026-05-08 07:04 | 42.52859 | 33.05126 | 35158 ft | 490 kts | 92° |
| 2026-05-08 07:04 | 42.52285 | 33.14319 | 35168 ft | 490 kts | 92° |
| 2026-05-08 07:05 | 42.51707 | 33.23461 | 35157 ft | 490 kts | 92° |
| 2026-05-08 07:05 | 42.51114 | 33.32717 | 35161 ft | 490 kts | 92° |
| 2026-05-08 07:06 | 42.50518 | 33.41909 | 35168 ft | 490 kts | 92° |
| 2026-05-08 07:06 | 42.49914 | 33.51108 | 35162 ft | 490 kts | 92° |
| 2026-05-08 07:07 | 42.49303 | 33.60302 | 35166 ft | 490 kts | 92° |
| 2026-05-08 07:07 | 42.48689 | 33.69423 | 35165 ft | 489 kts | 92° |
| 2026-05-08 07:08 | 42.48064 | 33.78599 | 35175 ft | 489 kts | 92° |
| 2026-05-08 07:08 | 42.47432 | 33.87781 | 35172 ft | 489 kts | 92° |
| 2026-05-08 07:09 | 42.46792 | 33.96959 | 35178 ft | 489 kts | 92° |
| 2026-05-08 07:09 | 42.46146 | 34.06122 | 35167 ft | 489 kts | 92° |
| 2026-05-08 07:10 | 42.45493 | 34.15273 | 35179 ft | 488 kts | 92° |
| 2026-05-08 07:10 | 42.44833 | 34.24417 | 35173 ft | 488 kts | 92° |
| 2026-05-08 07:11 | 42.44167 | 34.33541 | 35170 ft | 487 kts | 92° |
| 2026-05-08 07:11 | 42.43494 | 34.42661 | 35172 ft | 486 kts | 92° |
| 2026-05-08 07:12 | 42.42816 | 34.51761 | 35173 ft | 486 kts | 92° |
| 2026-05-08 07:12 | 42.42130 | 34.60860 | 35185 ft | 486 kts | 92° |
| 2026-05-08 07:13 | 42.41438 | 34.69946 | 35193 ft | 485 kts | 92° |
| 2026-05-08 07:13 | 42.40739 | 34.79024 | 35177 ft | 484 kts | 92° |
| 2026-05-08 07:14 | 42.40034 | 34.88075 | 35180 ft | 483 kts | 93° |
| 2026-05-08 07:14 | 42.39324 | 34.97111 | 35182 ft | 482 kts | 93° |
| 2026-05-08 07:15 | 42.38609 | 35.06117 | 35186 ft | 481 kts | 93° |
| 2026-05-08 07:15 | 42.37887 | 35.15115 | 35184 ft | 481 kts | 93° |
| 2026-05-08 07:16 | 42.37159 | 35.24098 | 35197 ft | 480 kts | 93° |
| 2026-05-08 07:16 | 42.36426 | 35.33063 | 35201 ft | 480 kts | 93° |
| 2026-05-08 07:17 | 42.35686 | 35.42026 | 35196 ft | 480 kts | 93° |
| 2026-05-08 07:17 | 42.34938 | 35.51001 | 35199 ft | 480 kts | 94° |
| 2026-05-08 07:18 | 42.34183 | 35.59967 | 35197 ft | 480 kts | 94° |
| 2026-05-08 07:18 | 42.33421 | 35.68927 | 35212 ft | 479 kts | 94° |
| 2026-05-08 07:19 | 42.32654 | 35.77865 | 35201 ft | 479 kts | 94° |
| 2026-05-08 07:19 | 42.31880 | 35.86796 | 35199 ft | 478 kts | 94° |
| 2026-05-08 07:20 | 42.31102 | 35.95703 | 35198 ft | 477 kts | 94° |
| 2026-05-08 07:20 | 42.30317 | 36.04605 | 35203 ft | 477 kts | 94° |
| 2026-05-08 07:21 | 42.29526 | 36.13487 | 35205 ft | 476 kts | 94° |
| 2026-05-08 07:21 | 42.28729 | 36.22369 | 35203 ft | 476 kts | 94° |
| 2026-05-08 07:22 | 42.27926 | 36.31234 | 35215 ft | 476 kts | 94° |
| 2026-05-08 07:22 | 42.27116 | 36.40100 | 35208 ft | 475 kts | 94° |
| 2026-05-08 07:23 | 42.26300 | 36.48951 | 35215 ft | 475 kts | 94° |
| 2026-05-08 07:23 | 42.25477 | 36.57804 | 35208 ft | 475 kts | 94° |
| 2026-05-08 07:24 | 42.24649 | 36.66644 | 35207 ft | 475 kts | 94° |
| 2026-05-08 07:24 | 42.23818 | 36.75427 | 35211 ft | 475 kts | 95° |
| 2026-05-08 07:25 | 42.22977 | 36.84255 | 35211 ft | 474 kts | 95° |
| 2026-05-08 07:26 | 42.21702 | 36.97496 | 35213 ft | 474 kts | 95° |
| 2026-05-08 07:26 | 42.20842 | 37.06326 | 35222 ft | 475 kts | 95° |
| 2026-05-08 07:27 | 42.19977 | 37.15149 | 35214 ft | 475 kts | 95° |
| 2026-05-08 07:27 | 42.19103 | 37.23982 | 35219 ft | 475 kts | 95° |
| 2026-05-08 07:28 | 42.18224 | 37.32804 | 35217 ft | 475 kts | 95° |
| 2026-05-08 07:28 | 42.17336 | 37.41649 | 35265 ft | 479 kts | 95° |
| 2026-05-08 07:28 | 42.16886 | 37.46100 | 35456 ft | 480 kts | 95° |
| 2026-05-08 07:29 | 42.16435 | 37.50550 | 35715 ft | 479 kts | 95° |
| 2026-05-08 07:29 | 42.15981 | 37.55003 | 35959 ft | 479 kts | 95° |
| 2026-05-08 07:29 | 42.15679 | 37.57948 | 36118 ft | 479 kts | 95° |
| 2026-05-08 07:29 | 42.15223 | 37.62397 | 36321 ft | 480 kts | 95° |
| 2026-05-08 07:30 | 42.14764 | 37.66849 | 36543 ft | 480 kts | 95° |
| 2026-05-08 07:30 | 42.14304 | 37.71305 | 36727 ft | 481 kts | 95° |
| 2026-05-08 07:30 | 42.13840 | 37.75774 | 36924 ft | 481 kts | 95° |
| 2026-05-08 07:30 | 42.13375 | 37.80238 | 37106 ft | 482 kts | 95° |
| 2026-05-08 07:31 | 42.12907 | 37.84716 | 37164 ft | 484 kts | 96° |
| 2026-05-08 07:31 | 42.11961 | 37.93713 | 37212 ft | 484 kts | 96° |
| 2026-05-08 07:32 | 42.11012 | 38.02656 | 37206 ft | 481 kts | 96° |
| 2026-05-08 07:32 | 42.10062 | 38.11545 | 37215 ft | 478 kts | 96° |
| 2026-05-08 07:33 | 42.09112 | 38.20380 | 37216 ft | 476 kts | 96° |
| 2026-05-08 07:33 | 42.08156 | 38.29205 | 37216 ft | 476 kts | 96° |
| 2026-05-08 07:34 | 42.07192 | 38.38040 | 37221 ft | 478 kts | 96° |
| 2026-05-08 07:34 | 42.06216 | 38.46915 | 37227 ft | 480 kts | 96° |
| 2026-05-08 07:35 | 42.05230 | 38.55817 | 37225 ft | 482 kts | 96° |
| 2026-05-08 07:35 | 42.04232 | 38.64757 | 37228 ft | 484 kts | 96° |
| 2026-05-08 07:36 | 42.03226 | 38.73709 | 37218 ft | 485 kts | 96° |
| 2026-05-08 07:36 | 42.02210 | 38.82675 | 37209 ft | 485 kts | 96° |
| 2026-05-08 07:37 | 42.01189 | 38.91627 | 37211 ft | 484 kts | 96° |
| 2026-05-08 07:37 | 42.00162 | 39.00566 | 37214 ft | 484 kts | 96° |
| 2026-05-08 07:38 | 41.99129 | 39.09495 | 37223 ft | 483 kts | 97° |
| 2026-05-08 07:38 | 41.98098 | 39.18349 | 37211 ft | 482 kts | 97° |
| 2026-05-08 07:39 | 41.97049 | 39.27295 | 37215 ft | 481 kts | 97° |
| 2026-05-08 07:39 | 41.96007 | 39.36117 | 37227 ft | 481 kts | 97° |
| 2026-05-08 07:40 | 41.94953 | 39.44978 | 37223 ft | 480 kts | 97° |
| 2026-05-08 07:40 | 41.93893 | 39.53834 | 37216 ft | 480 kts | 97° |
| 2026-05-08 07:41 | 41.92828 | 39.62670 | 37221 ft | 479 kts | 97° |
| 2026-05-08 07:41 | 41.91757 | 39.71502 | 37217 ft | 479 kts | 97° |
| 2026-05-08 07:42 | 41.90680 | 39.80319 | 37214 ft | 479 kts | 97° |
| 2026-05-08 07:42 | 41.89595 | 39.89142 | 37216 ft | 479 kts | 97° |
| 2026-05-08 07:43 | 41.88504 | 39.97964 | 37215 ft | 479 kts | 97° |
| 2026-05-08 07:43 | 41.87404 | 40.06796 | 37216 ft | 480 kts | 97° |
| 2026-05-08 07:44 | 41.86297 | 40.15627 | 37224 ft | 480 kts | 98° |
| 2026-05-08 07:44 | 41.85181 | 40.24472 | 37217 ft | 481 kts | 98° |
| 2026-05-08 07:45 | 41.84058 | 40.33314 | 37213 ft | 481 kts | 98° |
| 2026-05-08 07:45 | 41.82927 | 40.42165 | 37216 ft | 481 kts | 98° |
| 2026-05-08 07:46 | 41.81792 | 40.51007 | 37215 ft | 481 kts | 98° |
| 2026-05-08 07:46 | 41.80662 | 40.59856 | 37215 ft | 481 kts | 96° |
| 2026-05-08 07:47 | 41.80406 | 40.68765 | 37217 ft | 478 kts | 85° |
| 2026-05-08 07:47 | 41.81274 | 40.77495 | 37228 ft | 476 kts | 78° |
| 2026-05-08 07:48 | 41.82399 | 40.86236 | 37216 ft | 476 kts | 78° |
| 2026-05-08 07:48 | 41.83499 | 40.94976 | 37210 ft | 476 kts | 79° |
| 2026-05-08 07:49 | 41.84569 | 41.03729 | 37215 ft | 475 kts | 79° |
| 2026-05-08 07:49 | 41.85623 | 41.12482 | 37211 ft | 475 kts | 79° |
| 2026-05-08 07:50 | 41.86669 | 41.21233 | 37216 ft | 475 kts | 79° |
| 2026-05-08 07:50 | 41.87708 | 41.29983 | 37204 ft | 475 kts | 79° |
| 2026-05-08 07:51 | 41.88743 | 41.38741 | 37203 ft | 475 kts | 79° |
| 2026-05-08 07:51 | 41.89769 | 41.47492 | 37203 ft | 475 kts | 79° |
| 2026-05-08 07:52 | 41.90789 | 41.56249 | 37193 ft | 475 kts | 79° |
| 2026-05-08 07:52 | 41.91802 | 41.65002 | 37200 ft | 475 kts | 80° |
| 2026-05-08 07:53 | 41.92810 | 41.73772 | 37187 ft | 475 kts | 80° |
| 2026-05-08 07:53 | 41.93812 | 41.82555 | 37184 ft | 476 kts | 80° |
| 2026-05-08 07:54 | 41.94808 | 41.91347 | 37177 ft | 477 kts | 80° |
| 2026-05-08 07:54 | 41.95800 | 42.00160 | 37174 ft | 477 kts | 80° |
| 2026-05-08 07:55 | 41.96785 | 42.08979 | 37168 ft | 478 kts | 80° |
| 2026-05-08 07:55 | 41.97764 | 42.17815 | 37159 ft | 478 kts | 80° |
| 2026-05-08 07:56 | 41.98740 | 42.26666 | 37159 ft | 479 kts | 81° |
| 2026-05-08 07:56 | 41.99708 | 42.35528 | 37153 ft | 479 kts | 81° |
| 2026-05-08 07:57 | 42.00670 | 42.44394 | 37159 ft | 479 kts | 81° |
| 2026-05-08 07:57 | 42.01620 | 42.53216 | 37153 ft | 480 kts | 81° |
| 2026-05-08 07:58 | 42.02570 | 42.62095 | 37158 ft | 480 kts | 81° |
| 2026-05-08 07:58 | 42.03513 | 42.70989 | 37151 ft | 480 kts | 81° |
| 2026-05-08 07:59 | 42.04449 | 42.79879 | 37149 ft | 480 kts | 81° |
| 2026-05-08 07:59 | 42.05381 | 42.88783 | 37155 ft | 481 kts | 81° |
| 2026-05-08 08:00 | 42.05855 | 42.97723 | 37144 ft | 481 kts | 96° |
| 2026-05-08 08:00 | 42.04031 | 43.06362 | 37152 ft | 482 kts | 117° |
| 2026-05-08 08:01 | 42.00840 | 43.14304 | 37159 ft | 484 kts | 118° |
| 2026-05-08 08:01 | 41.97614 | 43.22273 | 37157 ft | 487 kts | 118° |
| 2026-05-08 08:02 | 41.94413 | 43.30311 | 37157 ft | 489 kts | 118° |
| 2026-05-08 08:02 | 41.91221 | 43.38385 | 37159 ft | 490 kts | 118° |
| 2026-05-08 08:03 | 41.88025 | 43.46458 | 37150 ft | 490 kts | 118° |
| 2026-05-08 08:03 | 41.84818 | 43.54530 | 37158 ft | 490 kts | 118° |
| 2026-05-08 08:04 | 41.81609 | 43.62580 | 37166 ft | 490 kts | 118° |
| 2026-05-08 08:04 | 41.78392 | 43.70624 | 37160 ft | 489 kts | 119° |
| 2026-05-08 08:05 | 41.75177 | 43.78645 | 37168 ft | 488 kts | 119° |
| 2026-05-08 08:05 | 41.71962 | 43.86644 | 37167 ft | 488 kts | 119° |
| 2026-05-08 08:06 | 41.68744 | 43.94627 | 37171 ft | 487 kts | 119° |
| 2026-05-08 08:06 | 41.65526 | 44.02591 | 37177 ft | 486 kts | 119° |
| 2026-05-08 08:07 | 41.62309 | 44.10536 | 37173 ft | 486 kts | 120° |
| 2026-05-08 08:07 | 41.59120 | 44.18500 | 37167 ft | 486 kts | 116° |
| 2026-05-08 08:08 | 41.56900 | 44.27024 | 37166 ft | 488 kts | 104° |
| 2026-05-08 08:08 | 41.55842 | 44.35920 | 37172 ft | 489 kts | 98° |
| 2026-05-08 08:09 | 41.55017 | 44.44942 | 37173 ft | 490 kts | 98° |
| 2026-05-08 08:09 | 41.54155 | 44.53982 | 37170 ft | 492 kts | 98° |
| 2026-05-08 08:10 | 41.53254 | 44.63038 | 37175 ft | 493 kts | 98° |
| 2026-05-08 08:10 | 41.52337 | 44.72099 | 37183 ft | 493 kts | 98° |
| 2026-05-08 08:11 | 41.51413 | 44.81171 | 37179 ft | 494 kts | 98° |
| 2026-05-08 08:11 | 41.50483 | 44.90249 | 37183 ft | 494 kts | 99° |
| 2026-05-08 08:12 | 41.49548 | 44.99315 | 37178 ft | 493 kts | 99° |
| 2026-05-08 08:12 | 41.48605 | 45.08376 | 37156 ft | 493 kts | 99° |
| 2026-05-08 08:13 | 41.47658 | 45.17423 | 37169 ft | 493 kts | 99° |
| 2026-05-08 08:13 | 41.46389 | 45.26356 | 37155 ft | 489 kts | 112° |
| 2026-05-08 08:14 | 41.43130 | 45.34202 | 37171 ft | 483 kts | 131° |
| 2026-05-08 08:14 | 41.38556 | 45.40685 | 37174 ft | 481 kts | 136° |
| 2026-05-08 08:15 | 41.33929 | 45.47154 | 37171 ft | 483 kts | 135° |
| 2026-05-08 08:15 | 41.29337 | 45.53706 | 37174 ft | 485 kts | 135° |
| 2026-05-08 08:16 | 41.24775 | 45.60226 | 37164 ft | 486 kts | 135° |
| 2026-05-08 08:16 | 41.20872 | 45.67589 | 37179 ft | 492 kts | 121° |
| 2026-05-08 08:17 | 41.18232 | 45.76002 | 37184 ft | 495 kts | 111° |
| 2026-05-08 08:17 | 41.16017 | 45.84668 | 37160 ft | 496 kts | 111° |
| 2026-05-08 08:18 | 41.13761 | 45.93318 | 37173 ft | 496 kts | 112° |
| 2026-05-08 08:18 | 41.11464 | 46.01936 | 37177 ft | 496 kts | 112° |
| 2026-05-08 08:19 | 41.09542 | 46.09095 | 37179 ft | 496 kts | 112° |
| 2026-05-08 08:19 | 41.07213 | 46.17755 | 37177 ft | 496 kts | 112° |
| 2026-05-08 08:20 | 41.04911 | 46.26300 | 37192 ft | 496 kts | 112° |
| 2026-05-08 08:20 | 41.02595 | 46.34906 | 37189 ft | 496 kts | 112° |
| 2026-05-08 08:21 | 41.00302 | 46.43523 | 37171 ft | 496 kts | 112° |
| 2026-05-08 08:21 | 40.98002 | 46.52142 | 37178 ft | 497 kts | 113° |
| 2026-05-08 08:22 | 40.95689 | 46.60761 | 37194 ft | 497 kts | 113° |
| 2026-05-08 08:22 | 40.93370 | 46.69366 | 37210 ft | 497 kts | 113° |
| 2026-05-08 08:23 | 40.91043 | 46.77982 | 37187 ft | 497 kts | 114° |
| 2026-05-08 08:23 | 40.88704 | 46.86585 | 37186 ft | 498 kts | 114° |
| 2026-05-08 08:24 | 40.86340 | 46.95182 | 37207 ft | 498 kts | 114° |
| 2026-05-08 08:24 | 40.83973 | 47.03774 | 37175 ft | 498 kts | 114° |
| 2026-05-08 08:25 | 40.81602 | 47.12363 | 37181 ft | 497 kts | 114° |
| 2026-05-08 08:25 | 40.79226 | 47.20934 | 37187 ft | 498 kts | 114° |
| 2026-05-08 08:26 | 40.76840 | 47.29512 | 37188 ft | 498 kts | 114° |
| 2026-05-08 08:26 | 40.74448 | 47.38097 | 37172 ft | 498 kts | 115° |
| 2026-05-08 08:27 | 40.72043 | 47.46663 | 37187 ft | 498 kts | 115° |
| 2026-05-08 08:27 | 40.69622 | 47.55231 | 37192 ft | 499 kts | 115° |
| 2026-05-08 08:28 | 40.67196 | 47.63795 | 37192 ft | 499 kts | 115° |
| 2026-05-08 08:28 | 40.64764 | 47.72363 | 37194 ft | 500 kts | 115° |
| 2026-05-08 08:29 | 40.62323 | 47.80933 | 37199 ft | 500 kts | 115° |
| 2026-05-08 08:29 | 40.59879 | 47.89487 | 37198 ft | 500 kts | 115° |
| 2026-05-08 08:30 | 40.57472 | 47.98004 | 37181 ft | 501 kts | 114° |